createdAt,value
2017-06-01T00:00:47.843Z,5.62
2017-06-01T00:03:15.277Z,6.04
2017-06-01T00:05:42.730Z,5.58
2017-06-01T00:08:10.150Z,5.90
2017-06-01T00:10:37.596Z,6.26
2017-06-01T00:13:05.031Z,6.20
2017-06-01T00:15:32.474Z,5.80
2017-06-01T00:17:59.916Z,5.78
2017-06-01T00:20:27.336Z,5.72
2017-06-01T00:22:54.811Z,5.92
2017-06-01T00:25:22.239Z,6.02
2017-06-01T00:27:49.679Z,5.94
2017-06-01T00:30:17.107Z,6.18
2017-06-01T00:32:44.540Z,5.24
2017-06-01T00:35:11.975Z,5.70
2017-06-01T00:37:39.399Z,6.00
2017-06-01T00:40:06.859Z,6.18
2017-06-01T00:42:34.291Z,5.94
2017-06-01T00:45:01.808Z,6.52
2017-06-01T00:47:29.239Z,6.16
2017-06-01T00:49:56.668Z,6.02
2017-06-01T00:52:24.115Z,6.32
2017-06-01T00:54:51.540Z,6.74
2017-06-01T00:57:18.974Z,6.24
2017-06-01T00:59:46.414Z,5.50
2017-06-01T01:02:13.851Z,6.20
2017-06-01T01:04:41.278Z,6.58
2017-06-01T01:07:08.712Z,6.28
2017-06-01T01:09:36.175Z,6.58
2017-06-01T01:12:03.603Z,6.46
2017-06-01T01:14:31.037Z,8.12
2017-06-01T01:16:58.466Z,6.78
2017-06-01T01:19:25.899Z,7.22
2017-06-01T01:21:53.358Z,6.40
2017-06-01T01:24:20.794Z,6.34
2017-06-01T01:26:48.222Z,6.00
2017-06-01T01:29:15.660Z,5.80
2017-06-01T01:31:43.091Z,6.12
2017-06-01T01:34:10.541Z,6.48
2017-06-01T01:36:37.963Z,6.32
2017-06-01T01:39:05.393Z,6.46
2017-06-01T01:41:32.832Z,6.70
2017-06-01T01:44:00.259Z,7.32
2017-06-01T01:46:27.703Z,6.48
2017-06-01T01:48:55.127Z,6.08
2017-06-01T01:51:22.551Z,7.14
2017-06-01T01:53:49.996Z,7.16
2017-06-01T01:56:17.427Z,7.30
2017-06-01T01:58:45.100Z,6.98
2017-06-01T02:01:12.540Z,6.94
2017-06-01T02:03:39.967Z,7.16
2017-06-01T02:06:07.403Z,7.68
2017-06-01T02:08:34.854Z,6.88
2017-06-01T02:11:02.303Z,5.92
2017-06-01T02:13:29.727Z,6.46
2017-06-01T02:15:57.151Z,6.56
2017-06-01T02:18:24.600Z,7.80
2017-06-01T02:20:52.031Z,6.22
2017-06-01T02:23:19.463Z,7.40
2017-06-01T02:25:46.907Z,7.52
2017-06-01T02:28:14.332Z,7.76
2017-06-01T02:30:41.763Z,7.04
2017-06-01T02:33:09.195Z,6.18
2017-06-01T02:35:36.638Z,5.50
2017-06-01T02:38:04.187Z,7.50
2017-06-01T02:40:31.614Z,7.44
2017-06-01T02:42:59.046Z,7.28
2017-06-01T02:45:26.478Z,7.12
2017-06-01T02:47:53.916Z,7.30
2017-06-01T02:50:21.369Z,7.38
2017-06-01T02:52:48.815Z,7.36
2017-06-01T02:55:16.223Z,7.00
2017-06-01T02:57:43.697Z,7.68
2017-06-01T03:00:11.122Z,7.36
2017-06-01T03:02:38.562Z,6.88
2017-06-01T03:05:05.986Z,6.58
2017-06-01T03:07:33.452Z,7.98
2017-06-01T03:10:00.885Z,7.04
2017-06-01T03:12:28.307Z,8.20
2017-06-01T03:14:55.768Z,7.74
2017-06-01T03:17:23.196Z,7.52
2017-06-01T03:19:50.624Z,7.46
2017-06-01T03:22:18.084Z,7.66
2017-06-01T03:24:45.504Z,7.68
2017-06-01T03:27:12.939Z,8.58
2017-06-01T03:29:40.367Z,9.02
2017-06-01T03:32:07.796Z,7.80
2017-06-01T03:34:35.240Z,7.74
2017-06-01T03:37:02.668Z,9.38
2017-06-01T03:39:30.108Z,7.88
2017-06-01T03:41:57.536Z,8.04
2017-06-01T03:44:24.959Z,7.98
2017-06-01T03:46:52.399Z,8.40
2017-06-01T03:49:19.827Z,8.40
2017-06-01T03:51:47.271Z,8.46
2017-06-01T03:54:14.699Z,8.62
2017-06-01T03:56:42.123Z,7.48
2017-06-01T03:59:09.563Z,9.16
2017-06-01T04:01:36.999Z,9.60
2017-06-01T04:04:04.427Z,7.80
2017-06-01T04:06:31.858Z,8.86
2017-06-01T04:08:59.300Z,7.56
2017-06-01T04:11:26.728Z,9.54
2017-06-01T04:13:54.155Z,8.86
2017-06-01T04:16:21.641Z,9.12
2017-06-01T04:18:49.033Z,8.90
2017-06-01T04:21:16.458Z,9.96
2017-06-01T04:23:43.913Z,9.46
2017-06-01T04:26:11.339Z,9.82
2017-06-01T04:28:38.800Z,8.64
2017-06-01T04:31:06.227Z,9.54
2017-06-01T04:33:33.650Z,8.36
2017-06-01T04:36:01.083Z,8.90
2017-06-01T04:38:29.229Z,8.94
2017-06-01T04:40:56.698Z,8.62
2017-06-01T04:43:24.130Z,8.92
2017-06-01T04:45:51.550Z,10.24
2017-06-01T04:48:18.990Z,8.80
2017-06-01T04:50:46.421Z,9.00
2017-06-01T04:53:13.864Z,9.48
2017-06-01T04:55:41.287Z,7.92
2017-06-01T04:58:08.740Z,9.66
2017-06-01T05:00:36.172Z,9.38
2017-06-01T05:03:03.612Z,9.52
2017-06-01T05:05:31.051Z,8.30
2017-06-01T05:07:58.487Z,9.78
2017-06-01T05:10:25.940Z,9.16
2017-06-01T05:12:53.368Z,9.48
2017-06-01T05:15:20.820Z,9.48
2017-06-01T05:17:48.261Z,9.08
2017-06-01T05:20:15.691Z,8.22
2017-06-01T05:22:43.139Z,8.38
2017-06-01T05:25:10.572Z,8.42
2017-06-01T05:27:38.059Z,8.20
2017-06-01T05:30:05.496Z,7.84
2017-06-01T05:32:32.928Z,9.52
2017-06-01T05:35:00.400Z,25.96
2017-06-01T05:37:27.831Z,9.42
2017-06-01T05:39:55.268Z,9.68
2017-06-01T05:42:22.716Z,9.00
2017-06-01T05:44:50.135Z,7.86
2017-06-01T05:47:17.589Z,8.82
2017-06-01T05:49:45.092Z,9.04
2017-06-01T05:52:12.512Z,7.66
2017-06-01T05:54:39.952Z,7.90
2017-06-01T05:57:07.395Z,8.98
2017-06-01T05:59:34.827Z,7.66
2017-06-01T06:02:02.291Z,8.08
2017-06-01T06:04:29.853Z,7.56
2017-06-01T06:06:57.295Z,8.24
2017-06-01T06:09:24.714Z,7.64
2017-06-01T06:11:52.152Z,8.26
2017-06-01T06:14:19.578Z,8.66
2017-06-01T06:16:47.048Z,9.06
2017-06-01T06:19:14.483Z,9.18
2017-06-01T06:21:41.911Z,8.28
2017-06-01T06:24:09.369Z,9.46
2017-06-01T06:26:36.787Z,8.60
2017-06-01T06:29:04.253Z,10.20
2017-06-01T06:31:31.696Z,11.86
2017-06-01T06:33:59.124Z,9.02
2017-06-01T06:36:26.566Z,8.96
2017-06-01T06:38:53.992Z,9.14
2017-06-01T06:41:21.442Z,9.40
2017-06-01T06:43:48.875Z,8.48
2017-06-01T06:46:16.311Z,8.74
2017-06-01T06:48:43.759Z,8.62
2017-06-01T06:51:11.212Z,8.18
2017-06-01T06:53:38.676Z,8.84
2017-06-01T06:56:06.102Z,9.40
2017-06-01T06:58:33.543Z,10.90
2017-06-01T07:01:00.984Z,10.12
2017-06-01T07:03:28.416Z,9.64
2017-06-01T07:05:55.879Z,8.56
2017-06-01T07:08:23.303Z,8.50
2017-06-01T07:10:50.727Z,7.78
2017-06-01T07:13:18.172Z,8.72
2017-06-01T07:15:45.590Z,8.34
2017-06-01T07:18:13.025Z,9.38
2017-06-01T07:20:40.471Z,8.76
2017-06-01T07:23:07.907Z,18.68
2017-06-01T07:25:35.334Z,11.38
2017-06-01T07:28:02.797Z,8.40
2017-06-01T07:30:30.265Z,9.22
2017-06-01T07:32:57.699Z,8.62
2017-06-01T07:35:25.298Z,8.32
2017-06-01T07:37:52.732Z,8.48
2017-06-01T07:40:20.183Z,8.54
2017-06-01T07:42:47.666Z,6.92
2017-06-01T07:45:15.086Z,6.86
2017-06-01T07:47:42.534Z,11.22
2017-06-01T07:50:09.995Z,18.48
2017-06-01T07:52:37.536Z,8.86
2017-06-01T07:55:04.977Z,7.40
2017-06-01T07:57:32.411Z,7.20
2017-06-01T07:59:59.839Z,8.40
2017-06-01T08:02:27.354Z,7.34
2017-06-01T08:04:54.782Z,7.58
2017-06-01T08:07:22.211Z,6.98
2017-06-01T08:09:49.650Z,7.78
2017-06-01T08:12:17.083Z,6.30
2017-06-01T08:14:44.518Z,6.88
2017-06-01T08:17:12.000Z,8.14
2017-06-01T08:19:39.439Z,7.74
2017-06-01T08:22:06.871Z,7.84
2017-06-01T08:24:34.370Z,7.20
2017-06-01T08:27:01.842Z,8.06
2017-06-01T08:29:29.275Z,7.80
2017-06-01T08:31:56.707Z,8.42
2017-06-01T08:34:24.145Z,8.16
2017-06-01T08:36:51.582Z,9.38
2017-06-01T08:39:19.011Z,11.06
2017-06-01T08:41:46.451Z,7.44
2017-06-01T08:44:13.973Z,7.12
2017-06-01T08:46:41.400Z,7.20
2017-06-01T08:49:08.840Z,7.78
2017-06-01T08:51:36.264Z,7.60
2017-06-01T08:54:03.700Z,6.86
2017-06-01T08:56:31.131Z,6.72
2017-06-01T08:58:58.564Z,5.58
2017-06-01T09:01:26.006Z,6.00
2017-06-01T09:03:53.431Z,6.68
2017-06-01T09:06:20.859Z,6.08
2017-06-01T09:08:48.301Z,5.58
2017-06-01T09:11:15.768Z,4.70
2017-06-01T09:13:43.212Z,5.12
2017-06-01T09:16:10.638Z,5.04
2017-06-01T09:18:38.062Z,4.78
2017-06-01T09:21:05.502Z,5.40
2017-06-01T09:23:32.943Z,3.82
2017-06-01T09:26:00.383Z,4.06
2017-06-01T09:28:27.807Z,4.10
2017-06-01T09:30:55.263Z,4.36
2017-06-01T09:33:22.698Z,7.88
2017-06-01T09:35:50.119Z,4.52
2017-06-01T09:38:17.564Z,4.76
2017-06-01T09:40:44.996Z,3.98
2017-06-01T09:43:12.533Z,4.96
2017-06-01T09:45:39.948Z,7.00
2017-06-01T09:48:07.370Z,5.38
2017-06-01T09:50:34.821Z,5.34
2017-06-01T09:53:02.260Z,5.50
2017-06-01T09:55:29.731Z,4.12
2017-06-01T09:57:57.162Z,4.70
2017-06-01T10:00:24.595Z,4.12
2017-06-01T10:02:52.031Z,4.60
2017-06-01T10:05:19.455Z,4.18
2017-06-01T10:07:46.908Z,4.06
2017-06-01T10:10:14.339Z,3.90
2017-06-01T10:12:41.769Z,4.04
2017-06-01T10:15:09.311Z,4.20
2017-06-01T10:17:36.733Z,3.90
2017-06-01T10:20:04.171Z,4.78
2017-06-01T10:22:31.604Z,5.22
2017-06-01T10:24:59.031Z,3.78
2017-06-01T10:27:26.478Z,4.94
2017-06-01T10:29:53.915Z,4.18
2017-06-01T10:32:21.584Z,4.52
2017-06-01T10:34:49.035Z,5.24
2017-06-01T10:37:16.471Z,4.30
2017-06-01T10:39:43.950Z,4.34
2017-06-01T10:42:12.304Z,4.64
2017-06-01T10:44:39.745Z,4.30
2017-06-01T10:47:07.263Z,4.26
2017-06-01T10:49:34.704Z,8.38
2017-06-01T10:52:02.125Z,9.86
2017-06-01T10:54:29.551Z,4.92
2017-06-01T10:56:56.990Z,4.44
2017-06-01T10:59:24.476Z,3.60
2017-06-01T11:01:51.915Z,3.50
2017-06-01T11:04:19.399Z,3.90
2017-06-01T11:06:46.823Z,4.18
2017-06-01T11:09:14.270Z,3.50
2017-06-01T11:11:41.696Z,4.20
2017-06-01T11:14:09.137Z,4.26
2017-06-01T11:16:36.612Z,4.58
2017-06-01T11:19:04.043Z,4.64
2017-06-01T11:21:31.475Z,4.18
2017-06-01T11:23:58.998Z,4.86
2017-06-01T11:26:26.444Z,4.52
2017-06-01T11:28:53.963Z,4.18
2017-06-01T11:31:21.389Z,8.72
2017-06-01T11:33:48.823Z,8.76
2017-06-01T11:36:16.251Z,4.48
2017-06-01T11:38:43.707Z,7.92
2017-06-01T11:41:11.152Z,4.22
2017-06-01T11:43:38.595Z,4.72
2017-06-01T11:46:06.030Z,4.20
2017-06-01T11:48:33.456Z,4.32
2017-06-01T11:51:00.915Z,3.98
2017-06-01T11:53:28.343Z,3.70
2017-06-01T11:55:55.780Z,4.32
2017-06-01T11:58:23.221Z,3.78
2017-06-01T12:00:50.674Z,4.30
2017-06-01T12:03:18.115Z,5.44
2017-06-01T12:05:45.549Z,4.72
2017-06-01T12:08:13.040Z,4.72
2017-06-01T12:10:40.471Z,4.64
2017-06-01T12:13:07.929Z,4.58
2017-06-01T12:15:35.364Z,5.56
2017-06-01T12:18:02.787Z,5.74
2017-06-01T12:20:30.219Z,4.88
2017-06-01T12:22:57.672Z,4.10
2017-06-01T12:25:25.097Z,4.74
2017-06-01T12:27:52.529Z,4.68
2017-06-01T12:30:19.965Z,5.60
2017-06-01T12:32:48.231Z,6.28
2017-06-01T12:35:15.663Z,5.38
2017-06-01T12:37:43.112Z,4.80
2017-06-01T12:40:10.557Z,5.26
2017-06-01T12:42:37.984Z,4.90
2017-06-01T12:45:05.420Z,4.88
2017-06-01T12:47:32.847Z,4.38
2017-06-01T12:50:00.272Z,4.70
2017-06-01T12:52:27.750Z,4.10
2017-06-01T12:54:55.185Z,4.58
2017-06-01T12:57:22.642Z,4.18
2017-06-01T13:00:00.260Z,3.98
2017-06-01T13:02:27.700Z,4.42
2017-06-01T13:04:55.140Z,4.70
2017-06-01T13:07:22.573Z,4.62
2017-06-01T13:09:49.996Z,3.70
2017-06-01T13:12:17.457Z,3.42
2017-06-01T13:14:45.821Z,4.36
2017-06-01T13:17:13.266Z,4.30
2017-06-01T13:19:40.700Z,3.46
2017-06-01T13:22:08.176Z,3.18
2017-06-01T13:24:35.632Z,2.52
2017-06-01T13:27:03.105Z,2.84
2017-06-01T13:29:30.555Z,3.14
2017-06-01T13:31:57.984Z,3.30
2017-06-01T13:34:25.408Z,3.26
2017-06-01T13:36:52.843Z,3.34
2017-06-01T13:39:20.267Z,3.34
2017-06-01T13:41:47.725Z,2.68
2017-06-01T13:44:15.158Z,10.06
2017-06-01T13:46:42.599Z,8.10
2017-06-01T13:49:10.043Z,2.76
2017-06-01T13:51:37.531Z,2.84
2017-06-01T13:54:04.973Z,3.70
2017-06-01T13:56:32.399Z,2.98
2017-06-01T13:58:59.832Z,3.80
2017-06-01T14:01:27.268Z,3.38
2017-06-01T14:03:54.700Z,3.02
2017-06-01T14:06:22.155Z,3.60
2017-06-01T14:08:49.720Z,3.90
2017-06-01T14:11:17.151Z,3.82
2017-06-01T14:13:44.610Z,3.14
2017-06-01T14:16:12.036Z,3.92
2017-06-01T14:18:39.495Z,3.14
2017-06-01T14:21:06.960Z,3.38
2017-06-01T14:23:34.543Z,3.52
2017-06-01T14:26:01.967Z,4.04
2017-06-01T14:28:29.422Z,3.62
2017-06-01T14:30:56.864Z,3.22
2017-06-01T14:33:24.315Z,3.20
2017-06-01T14:35:51.749Z,3.48
2017-06-01T14:38:19.219Z,3.78
2017-06-01T14:40:46.644Z,4.20
2017-06-01T14:43:14.098Z,3.42
2017-06-01T14:45:41.528Z,4.12
2017-06-01T14:48:08.968Z,3.34
2017-06-01T14:50:36.420Z,3.10
2017-06-01T14:53:03.851Z,2.96
2017-06-01T14:55:31.291Z,2.70
2017-06-01T14:57:58.724Z,3.60
2017-06-01T15:00:26.230Z,4.62
2017-06-01T15:02:53.662Z,3.20
2017-06-01T15:05:21.090Z,3.10
2017-06-01T15:07:48.528Z,2.98
2017-06-01T15:10:15.965Z,3.32
2017-06-01T15:12:43.395Z,8.58
2017-06-01T15:15:10.887Z,3.30
2017-06-01T15:17:38.431Z,2.96
2017-06-01T15:20:05.882Z,3.66
2017-06-01T15:22:33.311Z,3.38
2017-06-01T15:25:00.737Z,3.72
2017-06-01T15:27:28.171Z,3.44
2017-06-01T15:29:55.595Z,3.54
2017-06-01T15:32:23.049Z,3.42
2017-06-01T15:34:50.525Z,3.48
2017-06-01T15:37:17.956Z,3.08
2017-06-01T15:39:45.403Z,3.82
2017-06-01T15:42:12.831Z,3.10
2017-06-01T15:44:40.252Z,3.46
2017-06-01T15:47:07.705Z,6.48
2017-06-01T15:49:35.136Z,6.48
2017-06-01T15:52:02.636Z,3.60
2017-06-01T15:54:30.124Z,3.70
2017-06-01T15:56:57.639Z,3.86
2017-06-01T15:59:25.088Z,3.62
2017-06-01T16:01:52.547Z,4.28
2017-06-01T16:04:19.971Z,3.66
2017-06-01T16:06:47.412Z,3.42
2017-06-01T16:09:14.851Z,3.52
2017-06-01T16:11:42.324Z,2.90
2017-06-01T16:14:09.826Z,3.64
2017-06-01T16:16:37.243Z,3.88
2017-06-01T16:19:04.702Z,3.66
2017-06-01T16:21:32.150Z,3.48
2017-06-01T16:23:59.709Z,3.22
2017-06-01T16:26:27.135Z,3.08
2017-06-01T16:28:54.571Z,3.56
2017-06-01T16:31:22.039Z,3.64
2017-06-01T16:33:49.472Z,3.32
2017-06-01T16:36:16.917Z,3.60
2017-06-01T16:38:44.547Z,3.16
2017-06-01T16:41:11.956Z,3.00
2017-06-01T16:43:39.393Z,2.90
2017-06-01T16:46:06.822Z,12.32
2017-06-01T16:48:34.284Z,5.34
2017-06-01T16:51:01.764Z,3.24
2017-06-01T16:53:29.212Z,3.28
2017-06-01T16:55:56.672Z,4.22
2017-06-01T16:58:24.112Z,3.66
2017-06-01T17:00:51.597Z,3.22
2017-06-01T17:03:19.012Z,3.22
2017-06-01T17:05:46.440Z,3.44
2017-06-01T17:08:13.891Z,2.94
2017-06-01T17:10:41.319Z,3.08
2017-06-01T17:13:09.650Z,3.36
2017-06-01T17:15:37.078Z,3.22
2017-06-01T17:18:04.512Z,2.78
2017-06-01T17:20:31.949Z,3.10
2017-06-01T17:22:59.374Z,3.26
2017-06-01T17:25:26.849Z,3.56
2017-06-01T17:27:54.271Z,3.10
2017-06-01T17:30:21.704Z,3.24
2017-06-01T17:32:49.142Z,3.36
2017-06-01T17:35:16.568Z,2.96
2017-06-01T17:37:44.007Z,3.08
2017-06-01T17:40:11.440Z,3.36
2017-06-01T17:42:38.870Z,3.40
2017-06-01T17:45:06.641Z,3.52
2017-06-01T17:47:34.050Z,2.72
2017-06-01T17:50:01.504Z,3.40
2017-06-01T17:52:28.919Z,3.10
2017-06-01T17:54:56.360Z,3.34
2017-06-01T17:57:23.793Z,2.60
2017-06-01T17:59:51.219Z,3.54
2017-06-01T18:02:18.664Z,2.80
2017-06-01T18:04:46.096Z,3.02
2017-06-01T18:07:13.547Z,3.28
2017-06-01T18:09:40.979Z,2.96
2017-06-01T18:12:08.422Z,2.80
2017-06-01T18:14:38.909Z,3.10
2017-06-01T18:17:06.339Z,3.42
2017-06-01T18:19:33.767Z,3.24
2017-06-01T18:22:01.206Z,3.42
2017-06-01T18:24:28.632Z,3.38
2017-06-01T18:26:56.063Z,3.30
2017-06-01T18:29:23.495Z,2.78
2017-06-01T18:31:50.928Z,3.40
2017-06-01T18:34:18.372Z,3.38
2017-06-01T18:36:45.801Z,3.98
2017-06-01T18:39:13.232Z,3.18
2017-06-01T18:41:40.658Z,3.20
2017-06-01T18:44:08.089Z,3.34
2017-06-01T18:46:35.523Z,3.60
2017-06-01T18:49:02.954Z,3.30
2017-06-01T18:51:30.412Z,4.80
2017-06-01T18:53:57.891Z,3.56
2017-06-01T18:56:25.311Z,3.48
2017-06-01T18:58:52.747Z,3.28
2017-06-01T19:01:20.175Z,3.44
2017-06-01T19:03:47.638Z,3.70
2017-06-01T19:06:15.052Z,3.62
2017-06-01T19:08:42.497Z,3.26
2017-06-01T19:11:09.941Z,3.38
2017-06-01T19:13:37.373Z,4.52
2017-06-01T19:16:04.822Z,4.86
2017-06-01T19:18:32.256Z,4.84
2017-06-01T19:20:59.691Z,4.52
2017-06-01T19:23:27.135Z,4.32
2017-06-01T19:25:54.563Z,4.00
2017-06-01T19:28:22.007Z,4.42
2017-06-01T19:30:49.440Z,4.00
2017-06-01T19:33:16.877Z,4.14
2017-06-01T19:35:44.307Z,4.34
2017-06-01T19:38:12.668Z,4.84
2017-06-01T19:40:40.114Z,5.68
2017-06-01T19:43:07.537Z,5.00
2017-06-01T19:45:34.964Z,6.78
2017-06-01T19:48:02.405Z,5.24
2017-06-01T19:50:29.831Z,4.50
2017-06-01T19:52:57.280Z,5.04
2017-06-01T19:55:24.709Z,5.38
2017-06-01T19:57:52.131Z,5.02
2017-06-01T20:00:19.565Z,5.10
2017-06-01T20:02:47.036Z,5.06
2017-06-01T20:05:14.573Z,5.24
2017-06-01T20:07:41.996Z,4.88
2017-06-01T20:10:09.428Z,4.90
2017-06-01T20:12:36.863Z,4.74
2017-06-01T20:15:04.301Z,5.90
2017-06-01T20:17:31.743Z,5.84
2017-06-01T20:19:59.178Z,5.26
2017-06-01T20:22:26.603Z,6.76
2017-06-01T20:24:54.041Z,5.38
2017-06-01T20:27:21.480Z,6.78
2017-06-01T20:29:48.923Z,6.58
2017-06-01T20:32:16.351Z,6.60
2017-06-01T20:34:43.787Z,7.04
2017-06-01T20:37:11.244Z,6.96
2017-06-01T20:39:38.668Z,6.70
2017-06-01T20:42:06.106Z,7.22
2017-06-01T20:44:33.534Z,6.66
2017-06-01T20:47:01.354Z,6.80
2017-06-01T20:49:28.772Z,5.62
2017-06-01T20:51:56.215Z,6.46
2017-06-01T20:54:23.727Z,5.50
2017-06-01T20:56:51.143Z,6.38
2017-06-01T20:59:18.582Z,5.98
2017-06-01T21:01:46.011Z,5.36
2017-06-01T21:04:13.439Z,6.70
2017-06-01T21:06:40.893Z,5.62
2017-06-01T21:09:08.346Z,6.06
2017-06-01T21:11:35.782Z,6.08
2017-06-01T21:14:03.227Z,6.68
2017-06-01T21:16:30.639Z,5.94
2017-06-01T21:18:58.075Z,5.96
2017-06-01T21:21:25.908Z,6.74
2017-06-01T21:23:53.423Z,8.00
2017-06-01T21:26:20.859Z,13.22
2017-06-01T21:28:48.296Z,22.20
2017-06-01T21:31:15.731Z,8.96
2017-06-01T21:33:43.155Z,7.46
2017-06-01T21:36:10.591Z,6.50
2017-06-01T21:38:38.023Z,7.44
2017-06-01T21:41:05.453Z,6.42
2017-06-01T21:43:32.935Z,6.60
2017-06-01T21:46:00.371Z,7.42
2017-06-01T21:48:27.817Z,7.02
2017-06-01T21:50:55.240Z,7.20
2017-06-01T21:53:22.685Z,6.48
2017-06-01T21:55:50.124Z,6.04
2017-06-01T21:58:17.551Z,6.36
2017-06-01T22:00:45.003Z,6.42
2017-06-01T22:03:12.432Z,5.22
2017-06-01T22:05:39.920Z,6.00
2017-06-01T22:08:07.360Z,5.20
2017-06-01T22:10:34.801Z,6.08
2017-06-01T22:13:02.223Z,6.80
2017-06-01T22:15:29.658Z,4.84
2017-06-01T22:17:57.087Z,5.00
2017-06-01T22:20:24.527Z,5.38
2017-06-01T22:22:51.959Z,29.00
2017-06-01T22:25:19.392Z,18.50
2017-06-01T22:27:46.832Z,5.32
2017-06-01T22:30:14.264Z,4.78
2017-06-01T22:32:41.698Z,5.60
2017-06-01T22:35:09.131Z,4.84
2017-06-01T22:37:36.559Z,5.10
2017-06-01T22:40:03.992Z,4.50
2017-06-01T22:42:31.414Z,5.30
2017-06-01T22:44:58.864Z,5.02
2017-06-01T22:47:26.303Z,5.52
2017-06-01T22:49:53.718Z,5.82
2017-06-01T22:52:21.155Z,5.10
2017-06-01T22:54:48.575Z,6.14
2017-06-01T22:57:16.024Z,4.78
2017-06-01T22:59:43.451Z,5.32
2017-06-01T23:02:10.912Z,5.56
2017-06-01T23:04:38.353Z,5.62
2017-06-01T23:07:05.775Z,5.26
2017-06-01T23:09:33.219Z,5.46
2017-06-01T23:12:00.651Z,5.50
2017-06-01T23:14:28.075Z,4.94
2017-06-01T23:16:55.507Z,5.00
2017-06-01T23:19:22.931Z,4.92
2017-06-01T23:21:50.500Z,5.52
2017-06-01T23:24:17.935Z,5.30
2017-06-01T23:26:45.364Z,4.52
2017-06-01T23:29:12.795Z,4.90
2017-06-01T23:31:40.223Z,5.00
2017-06-01T23:34:07.670Z,5.28
2017-06-01T23:36:35.256Z,5.08
2017-06-01T23:39:02.683Z,4.70
2017-06-01T23:41:30.119Z,4.68
2017-06-01T23:43:57.555Z,5.72
2017-06-01T23:46:24.991Z,5.10
2017-06-01T23:48:52.428Z,5.32
2017-06-01T23:51:19.851Z,5.54
2017-06-01T23:53:47.287Z,5.42
2017-06-01T23:56:14.710Z,5.26
2017-06-01T23:58:42.150Z,5.02
